sensor_id;sensor_type;location;lat;lon;timestamp;P1;durP1;ratioP1;P2;durP2;ratioP2
16330;SDS011;8275;48.206;16.340;2024-03-08T00:00:36;30.05;;;23.33;;
16330;SDS011;8275;48.206;16.340;2024-03-08T00:03:08;29.65;;;23.58;;
16330;SDS011;8275;48.206;16.340;2024-03-08T00:05:37;27.38;;;22.27;;
16330;SDS011;8275;48.206;16.340;2024-03-08T00:08:06;28.50;;;22.70;;
16330;SDS011;8275;48.206;16.340;2024-03-08T00:10:36;31.45;;;24.58;;
16330;SDS011;8275;48.206;16.340;2024-03-08T00:13:05;34.50;;;22.55;;
16330;SDS011;8275;48.206;16.340;2024-03-08T00:15:34;27.33;;;21.08;;
16330;SDS011;8275;48.206;16.340;2024-03-08T00:18:02;30.75;;;24.23;;
16330;SDS011;8275;48.206;16.340;2024-03-08T00:20:33;29.45;;;23.65;;
16330;SDS011;8275;48.206;16.340;2024-03-08T00:23:01;30.73;;;24.48;;
16330;SDS011;8275;48.206;16.340;2024-03-08T00:25:30;31.80;;;23.95;;
16330;SDS011;8275;48.206;16.340;2024-03-08T00:27:58;31.05;;;24.02;;
16330;SDS011;8275;48.206;16.340;2024-03-08T00:30:27;35.05;;;26.58;;
16330;SDS011;8275;48.206;16.340;2024-03-08T00:32:55;29.38;;;23.90;;
16330;SDS011;8275;48.206;16.340;2024-03-08T00:35:24;31.02;;;26.33;;
16330;SDS011;8275;48.206;16.340;2024-03-08T00:37:54;32.30;;;23.23;;
16330;SDS011;8275;48.206;16.340;2024-03-08T00:40:23;29.88;;;22.80;;
16330;SDS011;8275;48.206;16.340;2024-03-08T00:42:51;40.40;;;25.00;;
16330;SDS011;8275;48.206;16.340;2024-03-08T00:45:20;26.35;;;21.27;;
16330;SDS011;8275;48.206;16.340;2024-03-08T00:47:50;32.42;;;24.48;;
16330;SDS011;8275;48.206;16.340;2024-03-08T00:50:18;30.23;;;24.55;;
16330;SDS011;8275;48.206;16.340;2024-03-08T00:52:47;29.63;;;24.08;;
16330;SDS011;8275;48.206;16.340;2024-03-08T00:55:17;32.13;;;23.95;;
16330;SDS011;8275;48.206;16.340;2024-03-08T00:57:46;32.28;;;23.35;;
16330;SDS011;8275;48.206;16.340;2024-03-08T01:00:14;32.08;;;24.52;;
16330;SDS011;8275;48.206;16.340;2024-03-08T01:02:43;28.98;;;23.25;;
16330;SDS011;8275;48.206;16.340;2024-03-08T01:05:12;29.30;;;23.75;;
16330;SDS011;8275;48.206;16.340;2024-03-08T01:07:41;35.10;;;25.35;;
16330;SDS011;8275;48.206;16.340;2024-03-08T01:10:12;34.58;;;24.80;;
16330;SDS011;8275;48.206;16.340;2024-03-08T01:12:42;30.50;;;23.70;;
16330;SDS011;8275;48.206;16.340;2024-03-08T01:15:11;28.15;;;23.80;;
16330;SDS011;8275;48.206;16.340;2024-03-08T01:17:40;33.63;;;25.58;;
16330;SDS011;8275;48.206;16.340;2024-03-08T01:20:10;32.05;;;23.40;;
16330;SDS011;8275;48.206;16.340;2024-03-08T01:22:40;33.40;;;26.67;;
16330;SDS011;8275;48.206;16.340;2024-03-08T01:25:09;34.35;;;26.15;;
16330;SDS011;8275;48.206;16.340;2024-03-08T01:27:37;35.50;;;27.05;;
16330;SDS011;8275;48.206;16.340;2024-03-08T01:30:07;28.08;;;23.70;;
16330;SDS011;8275;48.206;16.340;2024-03-08T01:32:37;34.92;;;27.25;;
16330;SDS011;8275;48.206;16.340;2024-03-08T01:35:06;37.10;;;27.30;;
16330;SDS011;8275;48.206;16.340;2024-03-08T01:37:36;38.70;;;25.60;;
16330;SDS011;8275;48.206;16.340;2024-03-08T01:40:05;34.70;;;23.40;;
16330;SDS011;8275;48.206;16.340;2024-03-08T01:42:36;34.88;;;24.67;;
16330;SDS011;8275;48.206;16.340;2024-03-08T01:45:05;32.35;;;24.25;;
16330;SDS011;8275;48.206;16.340;2024-03-08T01:47:37;38.65;;;27.10;;
16330;SDS011;8275;48.206;16.340;2024-03-08T01:50:06;35.72;;;26.10;;
16330;SDS011;8275;48.206;16.340;2024-03-08T01:52:37;28.23;;;24.55;;
16330;SDS011;8275;48.206;16.340;2024-03-08T01:55:06;39.80;;;27.20;;
16330;SDS011;8275;48.206;16.340;2024-03-08T01:57:35;29.15;;;22.23;;
16330;SDS011;8275;48.206;16.340;2024-03-08T02:00:05;29.98;;;23.38;;
16330;SDS011;8275;48.206;16.340;2024-03-08T02:02:38;26.77;;;22.92;;
16330;SDS011;8275;48.206;16.340;2024-03-08T02:05:09;33.83;;;25.38;;
16330;SDS011;8275;48.206;16.340;2024-03-08T02:07:38;34.58;;;23.40;;
16330;SDS011;8275;48.206;16.340;2024-03-08T02:10:10;30.35;;;24.48;;
16330;SDS011;8275;48.206;16.340;2024-03-08T02:12:39;31.40;;;24.52;;
16330;SDS011;8275;48.206;16.340;2024-03-08T02:15:09;30.25;;;24.58;;
16330;SDS011;8275;48.206;16.340;2024-03-08T02:17:38;32.83;;;26.17;;
16330;SDS011;8275;48.206;16.340;2024-03-08T02:20:08;33.65;;;26.73;;
16330;SDS011;8275;48.206;16.340;2024-03-08T02:22:41;39.47;;;27.95;;
16330;SDS011;8275;48.206;16.340;2024-03-08T02:25:10;33.22;;;24.85;;
16330;SDS011;8275;48.206;16.340;2024-03-08T02:27:39;30.45;;;23.65;;
16330;SDS011;8275;48.206;16.340;2024-03-08T02:30:08;31.70;;;24.92;;
16330;SDS011;8275;48.206;16.340;2024-03-08T02:32:39;37.17;;;27.10;;
16330;SDS011;8275;48.206;16.340;2024-03-08T02:35:11;31.25;;;24.88;;
16330;SDS011;8275;48.206;16.340;2024-03-08T02:37:39;33.13;;;24.83;;
16330;SDS011;8275;48.206;16.340;2024-03-08T02:40:10;36.42;;;25.88;;
16330;SDS011;8275;48.206;16.340;2024-03-08T02:42:39;31.98;;;24.77;;
16330;SDS011;8275;48.206;16.340;2024-03-08T02:45:08;33.70;;;27.05;;
16330;SDS011;8275;48.206;16.340;2024-03-08T02:47:37;31.75;;;24.60;;
16330;SDS011;8275;48.206;16.340;2024-03-08T02:50:06;30.65;;;22.70;;
16330;SDS011;8275;48.206;16.340;2024-03-08T02:52:35;32.10;;;25.13;;
16330;SDS011;8275;48.206;16.340;2024-03-08T02:55:06;36.67;;;27.38;;
16330;SDS011;8275;48.206;16.340;2024-03-08T02:57:40;33.53;;;25.98;;
16330;SDS011;8275;48.206;16.340;2024-03-08T03:00:10;34.78;;;26.17;;
16330;SDS011;8275;48.206;16.340;2024-03-08T03:02:40;39.45;;;28.30;;
16330;SDS011;8275;48.206;16.340;2024-03-08T03:05:09;31.13;;;23.52;;
16330;SDS011;8275;48.206;16.340;2024-03-08T03:07:38;29.63;;;23.08;;
16330;SDS011;8275;48.206;16.340;2024-03-08T03:10:08;30.05;;;24.33;;
16330;SDS011;8275;48.206;16.340;2024-03-08T03:12:38;25.70;;;22.90;;
16330;SDS011;8275;48.206;16.340;2024-03-08T03:15:07;32.65;;;24.67;;
16330;SDS011;8275;48.206;16.340;2024-03-08T03:17:37;41.35;;;26.77;;
16330;SDS011;8275;48.206;16.340;2024-03-08T03:20:07;31.85;;;26.80;;
16330;SDS011;8275;48.206;16.340;2024-03-08T03:22:40;35.72;;;25.45;;
16330;SDS011;8275;48.206;16.340;2024-03-08T03:25:15;37.88;;;25.65;;
16330;SDS011;8275;48.206;16.340;2024-03-08T03:27:49;36.58;;;26.35;;
16330;SDS011;8275;48.206;16.340;2024-03-08T03:30:19;32.63;;;24.13;;
16330;SDS011;8275;48.206;16.340;2024-03-08T03:32:48;32.97;;;26.50;;
16330;SDS011;8275;48.206;16.340;2024-03-08T03:35:18;36.45;;;26.75;;
16330;SDS011;8275;48.206;16.340;2024-03-08T03:37:47;32.58;;;23.77;;
16330;SDS011;8275;48.206;16.340;2024-03-08T03:40:29;33.88;;;26.17;;
16330;SDS011;8275;48.206;16.340;2024-03-08T03:42:57;30.10;;;23.27;;
16330;SDS011;8275;48.206;16.340;2024-03-08T03:45:26;30.25;;;24.33;;
16330;SDS011;8275;48.206;16.340;2024-03-08T03:47:54;29.75;;;24.35;;
16330;SDS011;8275;48.206;16.340;2024-03-08T03:50:22;31.65;;;25.42;;
16330;SDS011;8275;48.206;16.340;2024-03-08T03:52:51;29.15;;;25.50;;
16330;SDS011;8275;48.206;16.340;2024-03-08T03:55:19;35.28;;;25.23;;
16330;SDS011;8275;48.206;16.340;2024-03-08T03:57:49;37.63;;;27.20;;
16330;SDS011;8275;48.206;16.340;2024-03-08T04:00:18;29.83;;;24.75;;
16330;SDS011;8275;48.206;16.340;2024-03-08T04:02:47;37.28;;;26.30;;
16330;SDS011;8275;48.206;16.340;2024-03-08T04:05:17;35.72;;;29.50;;
16330;SDS011;8275;48.206;16.340;2024-03-08T04:07:46;27.58;;;23.25;;
16330;SDS011;8275;48.206;16.340;2024-03-08T04:10:14;29.60;;;23.92;;
16330;SDS011;8275;48.206;16.340;2024-03-08T04:12:43;32.17;;;24.58;;
16330;SDS011;8275;48.206;16.340;2024-03-08T04:15:14;33.67;;;24.55;;
16330;SDS011;8275;48.206;16.340;2024-03-08T04:17:42;32.50;;;24.85;;
16330;SDS011;8275;48.206;16.340;2024-03-08T04:20:12;32.75;;;24.55;;
16330;SDS011;8275;48.206;16.340;2024-03-08T04:22:41;35.47;;;26.60;;
16330;SDS011;8275;48.206;16.340;2024-03-08T04:25:11;31.25;;;23.50;;
16330;SDS011;8275;48.206;16.340;2024-03-08T04:27:39;32.20;;;25.95;;
16330;SDS011;8275;48.206;16.340;2024-03-08T04:30:11;29.65;;;23.00;;
16330;SDS011;8275;48.206;16.340;2024-03-08T04:32:43;29.50;;;22.70;;
16330;SDS011;8275;48.206;16.340;2024-03-08T04:35:12;34.85;;;24.38;;
16330;SDS011;8275;48.206;16.340;2024-03-08T04:37:41;33.13;;;24.77;;
16330;SDS011;8275;48.206;16.340;2024-03-08T04:40:11;34.40;;;27.45;;
16330;SDS011;8275;48.206;16.340;2024-03-08T04:42:40;30.17;;;24.58;;
16330;SDS011;8275;48.206;16.340;2024-03-08T04:45:09;27.65;;;22.77;;
16330;SDS011;8275;48.206;16.340;2024-03-08T04:47:40;29.30;;;22.88;;
16330;SDS011;8275;48.206;16.340;2024-03-08T04:50:08;35.20;;;24.40;;
16330;SDS011;8275;48.206;16.340;2024-03-08T04:52:37;31.48;;;24.73;;
16330;SDS011;8275;48.206;16.340;2024-03-08T04:55:06;32.22;;;26.15;;
16330;SDS011;8275;48.206;16.340;2024-03-08T04:57:37;35.47;;;27.02;;
16330;SDS011;8275;48.206;16.340;2024-03-08T05:00:06;35.90;;;25.30;;
16330;SDS011;8275;48.206;16.340;2024-03-08T05:02:39;32.40;;;25.05;;
16330;SDS011;8275;48.206;16.340;2024-03-08T05:05:08;32.88;;;25.38;;
16330;SDS011;8275;48.206;16.340;2024-03-08T05:07:38;34.45;;;24.23;;
16330;SDS011;8275;48.206;16.340;2024-03-08T05:10:07;32.95;;;25.23;;
16330;SDS011;8275;48.206;16.340;2024-03-08T05:12:36;29.08;;;24.35;;
16330;SDS011;8275;48.206;16.340;2024-03-08T05:15:06;34.88;;;25.48;;
16330;SDS011;8275;48.206;16.340;2024-03-08T05:17:35;31.15;;;24.80;;
16330;SDS011;8275;48.206;16.340;2024-03-08T05:20:06;32.30;;;26.50;;
16330;SDS011;8275;48.206;16.340;2024-03-08T05:22:39;29.05;;;24.15;;
16330;SDS011;8275;48.206;16.340;2024-03-08T05:25:08;37.72;;;26.27;;
16330;SDS011;8275;48.206;16.340;2024-03-08T05:27:37;27.75;;;22.27;;
16330;SDS011;8275;48.206;16.340;2024-03-08T05:30:05;33.92;;;24.85;;
16330;SDS011;8275;48.206;16.340;2024-03-08T05:32:40;32.70;;;25.30;;
16330;SDS011;8275;48.206;16.340;2024-03-08T05:35:12;31.42;;;25.77;;
16330;SDS011;8275;48.206;16.340;2024-03-08T05:37:42;29.38;;;23.92;;
16330;SDS011;8275;48.206;16.340;2024-03-08T05:40:11;32.00;;;24.60;;
16330;SDS011;8275;48.206;16.340;2024-03-08T05:42:44;32.05;;;24.80;;
16330;SDS011;8275;48.206;16.340;2024-03-08T05:45:13;32.45;;;24.90;;
16330;SDS011;8275;48.206;16.340;2024-03-08T05:47:42;36.50;;;25.77;;
16330;SDS011;8275;48.206;16.340;2024-03-08T05:50:10;37.42;;;27.20;;
16330;SDS011;8275;48.206;16.340;2024-03-08T05:52:43;36.58;;;25.35;;
16330;SDS011;8275;48.206;16.340;2024-03-08T05:55:11;36.50;;;26.35;;
16330;SDS011;8275;48.206;16.340;2024-03-08T05:57:40;32.35;;;27.25;;
16330;SDS011;8275;48.206;16.340;2024-03-08T06:00:09;33.10;;;25.08;;
16330;SDS011;8275;48.206;16.340;2024-03-08T06:02:39;33.90;;;27.15;;
16330;SDS011;8275;48.206;16.340;2024-03-08T06:05:08;27.15;;;24.17;;
16330;SDS011;8275;48.206;16.340;2024-03-08T06:07:39;31.33;;;24.80;;
16330;SDS011;8275;48.206;16.340;2024-03-08T06:10:08;29.85;;;24.88;;
16330;SDS011;8275;48.206;16.340;2024-03-08T06:12:39;32.90;;;26.75;;
16330;SDS011;8275;48.206;16.340;2024-03-08T06:15:09;30.95;;;24.50;;
16330;SDS011;8275;48.206;16.340;2024-03-08T06:17:41;30.38;;;24.83;;
16330;SDS011;8275;48.206;16.340;2024-03-08T06:20:10;31.55;;;23.60;;
16330;SDS011;8275;48.206;16.340;2024-03-08T06:22:41;31.33;;;24.40;;
16330;SDS011;8275;48.206;16.340;2024-03-08T06:25:11;32.60;;;25.85;;
16330;SDS011;8275;48.206;16.340;2024-03-08T06:27:41;31.23;;;24.23;;
16330;SDS011;8275;48.206;16.340;2024-03-08T06:30:10;48.58;;;27.98;;
16330;SDS011;8275;48.206;16.340;2024-03-08T06:32:39;35.15;;;24.70;;
16330;SDS011;8275;48.206;16.340;2024-03-08T06:35:09;32.65;;;25.35;;
16330;SDS011;8275;48.206;16.340;2024-03-08T06:37:38;36.63;;;27.17;;
16330;SDS011;8275;48.206;16.340;2024-03-08T06:40:10;32.60;;;26.00;;
16330;SDS011;8275;48.206;16.340;2024-03-08T06:42:41;30.92;;;22.35;;
16330;SDS011;8275;48.206;16.340;2024-03-08T06:45:09;29.23;;;23.33;;
16330;SDS011;8275;48.206;16.340;2024-03-08T06:47:39;29.83;;;25.33;;
16330;SDS011;8275;48.206;16.340;2024-03-08T06:50:10;34.75;;;27.75;;
16330;SDS011;8275;48.206;16.340;2024-03-08T06:52:38;33.13;;;25.38;;
16330;SDS011;8275;48.206;16.340;2024-03-08T06:55:10;30.13;;;23.70;;
16330;SDS011;8275;48.206;16.340;2024-03-08T06:57:39;34.58;;;25.92;;
16330;SDS011;8275;48.206;16.340;2024-03-08T07:00:08;32.85;;;24.60;;
16330;SDS011;8275;48.206;16.340;2024-03-08T07:02:44;35.17;;;22.83;;
16330;SDS011;8275;48.206;16.340;2024-03-08T07:05:15;31.33;;;25.75;;
16330;SDS011;8275;48.206;16.340;2024-03-08T07:07:44;30.50;;;24.23;;
16330;SDS011;8275;48.206;16.340;2024-03-08T07:10:16;35.92;;;25.45;;
16330;SDS011;8275;48.206;16.340;2024-03-08T07:12:45;30.88;;;24.45;;
16330;SDS011;8275;48.206;16.340;2024-03-08T07:15:14;33.13;;;25.20;;
16330;SDS011;8275;48.206;16.340;2024-03-08T07:17:46;35.88;;;25.08;;
16330;SDS011;8275;48.206;16.340;2024-03-08T07:20:15;32.10;;;24.50;;
16330;SDS011;8275;48.206;16.340;2024-03-08T07:22:45;35.63;;;23.90;;
16330;SDS011;8275;48.206;16.340;2024-03-08T07:25:17;27.98;;;23.05;;
16330;SDS011;8275;48.206;16.340;2024-03-08T07:27:50;41.22;;;31.58;;
16330;SDS011;8275;48.206;16.340;2024-03-08T07:30:20;35.03;;;25.10;;
16330;SDS011;8275;48.206;16.340;2024-03-08T07:33:22;37.25;;;26.63;;
16330;SDS011;8275;48.206;16.340;2024-03-08T07:35:50;31.55;;;24.67;;
16330;SDS011;8275;48.206;16.340;2024-03-08T07:38:19;32.30;;;25.20;;
16330;SDS011;8275;48.206;16.340;2024-03-08T07:40:49;28.73;;;23.75;;
16330;SDS011;8275;48.206;16.340;2024-03-08T07:43:17;28.20;;;22.90;;
16330;SDS011;8275;48.206;16.340;2024-03-08T07:45:46;30.70;;;25.27;;
16330;SDS011;8275;48.206;16.340;2024-03-08T07:48:14;32.70;;;26.35;;
16330;SDS011;8275;48.206;16.340;2024-03-08T07:50:43;38.35;;;29.20;;
16330;SDS011;8275;48.206;16.340;2024-03-08T07:53:11;38.53;;;27.80;;
16330;SDS011;8275;48.206;16.340;2024-03-08T07:55:40;31.85;;;27.73;;
16330;SDS011;8275;48.206;16.340;2024-03-08T07:58:12;35.63;;;26.38;;
16330;SDS011;8275;48.206;16.340;2024-03-08T08:00:41;38.70;;;27.67;;
16330;SDS011;8275;48.206;16.340;2024-03-08T08:03:09;41.20;;;30.48;;
16330;SDS011;8275;48.206;16.340;2024-03-08T08:05:39;43.83;;;29.73;;
16330;SDS011;8275;48.206;16.340;2024-03-08T08:08:07;44.13;;;28.40;;
16330;SDS011;8275;48.206;16.340;2024-03-08T08:10:38;40.10;;;27.83;;
16330;SDS011;8275;48.206;16.340;2024-03-08T08:13:06;37.63;;;27.88;;
16330;SDS011;8275;48.206;16.340;2024-03-08T08:15:36;35.13;;;27.95;;
16330;SDS011;8275;48.206;16.340;2024-03-08T08:18:05;40.10;;;30.85;;
16330;SDS011;8275;48.206;16.340;2024-03-08T08:20:36;38.53;;;26.38;;
16330;SDS011;8275;48.206;16.340;2024-03-08T08:23:04;34.65;;;28.13;;
16330;SDS011;8275;48.206;16.340;2024-03-08T08:25:33;38.00;;;27.35;;
16330;SDS011;8275;48.206;16.340;2024-03-08T08:28:02;37.55;;;27.42;;
16330;SDS011;8275;48.206;16.340;2024-03-08T08:30:31;42.13;;;28.77;;
16330;SDS011;8275;48.206;16.340;2024-03-08T08:33:01;43.40;;;28.63;;
16330;SDS011;8275;48.206;16.340;2024-03-08T08:35:32;38.42;;;29.40;;
16330;SDS011;8275;48.206;16.340;2024-03-08T08:38:00;38.22;;;27.95;;
16330;SDS011;8275;48.206;16.340;2024-03-08T08:40:30;39.50;;;29.20;;
16330;SDS011;8275;48.206;16.340;2024-03-08T08:42:59;32.15;;;26.85;;
16330;SDS011;8275;48.206;16.340;2024-03-08T08:45:30;39.72;;;28.48;;
16330;SDS011;8275;48.206;16.340;2024-03-08T08:47:59;34.28;;;24.75;;
16330;SDS011;8275;48.206;16.340;2024-03-08T08:50:32;36.22;;;26.30;;
16330;SDS011;8275;48.206;16.340;2024-03-08T08:53:00;35.47;;;25.98;;
16330;SDS011;8275;48.206;16.340;2024-03-08T08:55:30;39.95;;;28.48;;
16330;SDS011;8275;48.206;16.340;2024-03-08T08:58:02;41.60;;;29.65;;
16330;SDS011;8275;48.206;16.340;2024-03-08T09:00:32;44.17;;;30.27;;
16330;SDS011;8275;48.206;16.340;2024-03-08T09:03:02;42.92;;;26.70;;
16330;SDS011;8275;48.206;16.340;2024-03-08T09:05:33;50.40;;;31.27;;
16330;SDS011;8275;48.206;16.340;2024-03-08T09:08:05;39.67;;;27.80;;
16330;SDS011;8275;48.206;16.340;2024-03-08T09:10:35;47.40;;;31.33;;
16330;SDS011;8275;48.206;16.340;2024-03-08T09:13:05;44.53;;;27.90;;
16330;SDS011;8275;48.206;16.340;2024-03-08T09:15:43;40.00;;;28.13;;
16330;SDS011;8275;48.206;16.340;2024-03-08T09:18:13;47.65;;;33.47;;
16330;SDS011;8275;48.206;16.340;2024-03-08T09:20:41;46.80;;;31.85;;
16330;SDS011;8275;48.206;16.340;2024-03-08T09:23:10;51.25;;;31.40;;
16330;SDS011;8275;48.206;16.340;2024-03-08T09:25:38;44.60;;;30.70;;
16330;SDS011;8275;48.206;16.340;2024-03-08T09:28:08;34.35;;;25.40;;
16330;SDS011;8275;48.206;16.340;2024-03-08T09:30:38;45.22;;;30.13;;
16330;SDS011;8275;48.206;16.340;2024-03-08T09:33:15;41.78;;;26.42;;
16330;SDS011;8275;48.206;16.340;2024-03-08T09:35:45;45.28;;;27.60;;
16330;SDS011;8275;48.206;16.340;2024-03-08T09:38:14;40.53;;;28.08;;
16330;SDS011;8275;48.206;16.340;2024-03-08T09:40:43;37.63;;;26.10;;
16330;SDS011;8275;48.206;16.340;2024-03-08T09:43:12;42.97;;;27.33;;
16330;SDS011;8275;48.206;16.340;2024-03-08T09:45:41;39.67;;;29.73;;
16330;SDS011;8275;48.206;16.340;2024-03-08T09:48:12;38.22;;;27.42;;
16330;SDS011;8275;48.206;16.340;2024-03-08T09:50:43;45.03;;;29.08;;
16330;SDS011;8275;48.206;16.340;2024-03-08T09:53:11;36.10;;;26.45;;
16330;SDS011;8275;48.206;16.340;2024-03-08T09:55:41;37.55;;;27.52;;
16330;SDS011;8275;48.206;16.340;2024-03-08T09:58:11;46.05;;;31.23;;
16330;SDS011;8275;48.206;16.340;2024-03-08T10:01:20;36.65;;;27.42;;
16330;SDS011;8275;48.206;16.340;2024-03-08T10:03:50;36.13;;;27.02;;
16330;SDS011;8275;48.206;16.340;2024-03-08T10:06:22;46.42;;;28.58;;
16330;SDS011;8275;48.206;16.340;2024-03-08T10:08:51;35.72;;;24.23;;
16330;SDS011;8275;48.206;16.340;2024-03-08T10:11:20;41.40;;;26.77;;
16330;SDS011;8275;48.206;16.340;2024-03-08T10:13:48;45.22;;;26.67;;
16330;SDS011;8275;48.206;16.340;2024-03-08T10:16:18;34.97;;;23.88;;
16330;SDS011;8275;48.206;16.340;2024-03-08T10:18:46;37.35;;;25.00;;
16330;SDS011;8275;48.206;16.340;2024-03-08T10:21:16;36.38;;;24.20;;
16330;SDS011;8275;48.206;16.340;2024-03-08T10:23:45;32.47;;;23.48;;
16330;SDS011;8275;48.206;16.340;2024-03-08T10:26:15;28.25;;;19.85;;
16330;SDS011;8275;48.206;16.340;2024-03-08T10:28:45;32.00;;;21.80;;
16330;SDS011;8275;48.206;16.340;2024-03-08T10:31:16;30.58;;;21.10;;
16330;SDS011;8275;48.206;16.340;2024-03-08T10:33:45;30.30;;;22.10;;
16330;SDS011;8275;48.206;16.340;2024-03-08T10:36:16;24.23;;;19.92;;
16330;SDS011;8275;48.206;16.340;2024-03-08T10:38:46;25.17;;;20.55;;
16330;SDS011;8275;48.206;16.340;2024-03-08T10:41:20;25.10;;;19.08;;
16330;SDS011;8275;48.206;16.340;2024-03-08T10:43:54;24.90;;;20.25;;
16330;SDS011;8275;48.206;16.340;2024-03-08T10:46:43;25.52;;;18.15;;
16330;SDS011;8275;48.206;16.340;2024-03-08T10:49:30;25.73;;;19.38;;
16330;SDS011;8275;48.206;16.340;2024-03-08T10:52:03;22.50;;;17.20;;
16330;SDS011;8275;48.206;16.340;2024-03-08T10:54:36;20.48;;;18.33;;
16330;SDS011;8275;48.206;16.340;2024-03-08T10:57:10;25.50;;;18.77;;
16330;SDS011;8275;48.206;16.340;2024-03-08T10:59:42;22.27;;;16.50;;
16330;SDS011;8275;48.206;16.340;2024-03-08T11:02:11;21.42;;;16.10;;
16330;SDS011;8275;48.206;16.340;2024-03-08T11:04:45;22.70;;;16.65;;
16330;SDS011;8275;48.206;16.340;2024-03-08T11:07:17;24.20;;;16.98;;
16330;SDS011;8275;48.206;16.340;2024-03-08T11:09:47;24.98;;;17.02;;
16330;SDS011;8275;48.206;16.340;2024-03-08T11:12:20;17.67;;;15.68;;
16330;SDS011;8275;48.206;16.340;2024-03-08T11:14:53;20.30;;;15.90;;
16330;SDS011;8275;48.206;16.340;2024-03-08T11:17:25;18.42;;;14.98;;
16330;SDS011;8275;48.206;16.340;2024-03-08T11:20:13;16.50;;;12.18;;
16330;SDS011;8275;48.206;16.340;2024-03-08T11:22:48;17.90;;;13.55;;
16330;SDS011;8275;48.206;16.340;2024-03-08T11:25:32;14.82;;;12.50;;
16330;SDS011;8275;48.206;16.340;2024-03-08T11:28:09;18.15;;;13.23;;
16330;SDS011;8275;48.206;16.340;2024-03-08T11:30:45;13.98;;;10.65;;
16330;SDS011;8275;48.206;16.340;2024-03-08T11:33:14;10.18;;;9.07;;
16330;SDS011;8275;48.206;16.340;2024-03-08T11:35:45;22.13;;;9.43;;
16330;SDS011;8275;48.206;16.340;2024-03-08T11:38:16;12.07;;;10.52;;
16330;SDS011;8275;48.206;16.340;2024-03-08T11:40:45;11.35;;;9.48;;
16330;SDS011;8275;48.206;16.340;2024-03-08T11:43:17;9.48;;;8.57;;
16330;SDS011;8275;48.206;16.340;2024-03-08T11:45:46;10.00;;;7.75;;
16330;SDS011;8275;48.206;16.340;2024-03-08T11:48:14;9.93;;;8.15;;
16330;SDS011;8275;48.206;16.340;2024-03-08T11:50:43;10.43;;;8.95;;
16330;SDS011;8275;48.206;16.340;2024-03-08T11:53:11;12.23;;;10.27;;
16330;SDS011;8275;48.206;16.340;2024-03-08T11:55:41;11.80;;;9.40;;
16330;SDS011;8275;48.206;16.340;2024-03-08T11:58:10;11.23;;;9.45;;
16330;SDS011;8275;48.206;16.340;2024-03-08T12:00:40;10.50;;;9.00;;
16330;SDS011;8275;48.206;16.340;2024-03-08T12:03:08;10.07;;;8.88;;
16330;SDS011;8275;48.206;16.340;2024-03-08T12:05:37;8.80;;;7.72;;
16330;SDS011;8275;48.206;16.340;2024-03-08T12:08:05;12.50;;;9.00;;
16330;SDS011;8275;48.206;16.340;2024-03-08T12:10:40;9.88;;;8.75;;
16330;SDS011;8275;48.206;16.340;2024-03-08T12:13:10;11.30;;;9.60;;
16330;SDS011;8275;48.206;16.340;2024-03-08T12:15:40;10.63;;;8.90;;
16330;SDS011;8275;48.206;16.340;2024-03-08T12:18:10;10.23;;;9.13;;
16330;SDS011;8275;48.206;16.340;2024-03-08T12:20:39;12.23;;;8.90;;
16330;SDS011;8275;48.206;16.340;2024-03-08T12:23:13;12.35;;;9.63;;
16330;SDS011;8275;48.206;16.340;2024-03-08T12:25:44;14.63;;;10.50;;
16330;SDS011;8275;48.206;16.340;2024-03-08T12:28:14;14.50;;;11.35;;
16330;SDS011;8275;48.206;16.340;2024-03-08T12:30:45;13.15;;;10.07;;
16330;SDS011;8275;48.206;16.340;2024-03-08T12:33:15;13.77;;;10.65;;
16330;SDS011;8275;48.206;16.340;2024-03-08T12:35:50;12.13;;;10.93;;
16330;SDS011;8275;48.206;16.340;2024-03-08T12:38:22;11.90;;;10.10;;
16330;SDS011;8275;48.206;16.340;2024-03-08T12:40:56;11.00;;;9.82;;
16330;SDS011;8275;48.206;16.340;2024-03-08T12:43:27;15.10;;;12.93;;
16330;SDS011;8275;48.206;16.340;2024-03-08T12:45:58;16.00;;;13.43;;
16330;SDS011;8275;48.206;16.340;2024-03-08T12:48:26;16.80;;;10.88;;
16330;SDS011;8275;48.206;16.340;2024-03-08T12:50:55;12.93;;;11.63;;
16330;SDS011;8275;48.206;16.340;2024-03-08T12:53:24;12.68;;;11.05;;
16330;SDS011;8275;48.206;16.340;2024-03-08T12:55:56;12.45;;;10.90;;
16330;SDS011;8275;48.206;16.340;2024-03-08T12:58:25;13.45;;;11.25;;
16330;SDS011;8275;48.206;16.340;2024-03-08T13:00:54;14.90;;;13.35;;
16330;SDS011;8275;48.206;16.340;2024-03-08T13:03:22;13.73;;;11.00;;
16330;SDS011;8275;48.206;16.340;2024-03-08T13:05:51;12.40;;;10.00;;
16330;SDS011;8275;48.206;16.340;2024-03-08T13:08:19;11.80;;;9.45;;
16330;SDS011;8275;48.206;16.340;2024-03-08T13:10:51;13.60;;;10.27;;
16330;SDS011;8275;48.206;16.340;2024-03-08T13:13:21;10.38;;;8.88;;
16330;SDS011;8275;48.206;16.340;2024-03-08T13:15:51;9.45;;;8.45;;
16330;SDS011;8275;48.206;16.340;2024-03-08T13:18:19;10.23;;;9.25;;
16330;SDS011;8275;48.206;16.340;2024-03-08T13:20:48;9.55;;;8.20;;
16330;SDS011;8275;48.206;16.340;2024-03-08T13:23:18;8.85;;;8.05;;
16330;SDS011;8275;48.206;16.340;2024-03-08T13:25:47;11.45;;;8.95;;
16330;SDS011;8275;48.206;16.340;2024-03-08T13:28:16;10.27;;;9.20;;
16330;SDS011;8275;48.206;16.340;2024-03-08T13:30:51;8.07;;;7.32;;
16330;SDS011;8275;48.206;16.340;2024-03-08T13:33:24;8.27;;;7.47;;
16330;SDS011;8275;48.206;16.340;2024-03-08T13:35:53;12.40;;;7.85;;
16330;SDS011;8275;48.206;16.340;2024-03-08T13:38:30;8.27;;;7.43;;
16330;SDS011;8275;48.206;16.340;2024-03-08T13:41:01;10.90;;;9.10;;
16330;SDS011;8275;48.206;16.340;2024-03-08T13:43:30;10.63;;;9.50;;
16330;SDS011;8275;48.206;16.340;2024-03-08T13:46:02;11.63;;;8.02;;
16330;SDS011;8275;48.206;16.340;2024-03-08T13:48:33;9.63;;;8.48;;
16330;SDS011;8275;48.206;16.340;2024-03-08T13:51:01;10.70;;;9.60;;
16330;SDS011;8275;48.206;16.340;2024-03-08T13:53:31;10.98;;;9.60;;
16330;SDS011;8275;48.206;16.340;2024-03-08T13:56:01;10.15;;;9.13;;
16330;SDS011;8275;48.206;16.340;2024-03-08T13:58:31;12.52;;;9.40;;
16330;SDS011;8275;48.206;16.340;2024-03-08T14:01:03;10.30;;;8.45;;
16330;SDS011;8275;48.206;16.340;2024-03-08T14:03:38;10.63;;;9.38;;
16330;SDS011;8275;48.206;16.340;2024-03-08T14:06:08;12.20;;;8.43;;
16330;SDS011;8275;48.206;16.340;2024-03-08T14:08:47;11.02;;;9.13;;
16330;SDS011;8275;48.206;16.340;2024-03-08T14:11:15;11.80;;;8.18;;
16330;SDS011;8275;48.206;16.340;2024-03-08T14:13:45;9.85;;;8.95;;
16330;SDS011;8275;48.206;16.340;2024-03-08T14:16:15;12.43;;;9.68;;
16330;SDS011;8275;48.206;16.340;2024-03-08T14:18:44;11.23;;;9.00;;
16330;SDS011;8275;48.206;16.340;2024-03-08T14:21:12;10.73;;;9.43;;
16330;SDS011;8275;48.206;16.340;2024-03-08T14:23:41;11.95;;;9.57;;
16330;SDS011;8275;48.206;16.340;2024-03-08T14:26:10;15.25;;;9.20;;
16330;SDS011;8275;48.206;16.340;2024-03-08T14:28:38;11.77;;;9.68;;
16330;SDS011;8275;48.206;16.340;2024-03-08T14:31:07;11.30;;;10.15;;
16330;SDS011;8275;48.206;16.340;2024-03-08T14:33:39;19.48;;;9.85;;
16330;SDS011;8275;48.206;16.340;2024-03-08T14:36:09;9.75;;;8.93;;
16330;SDS011;8275;48.206;16.340;2024-03-08T14:38:40;12.32;;;10.65;;
16330;SDS011;8275;48.206;16.340;2024-03-08T14:41:08;11.60;;;10.27;;